createdAt,value
2018-12-10T00:02:31.757Z,30.20
2018-12-10T00:07:41.859Z,34.07
2018-12-10T00:12:56.069Z,30.03
2018-12-10T00:23:57.571Z,39.53
2018-12-10T00:29:00.069Z,41.40
2018-12-10T00:34:02.786Z,48.90
2018-12-10T00:39:17.766Z,41.77
2018-12-10T00:44:20.089Z,50.13
2018-12-10T00:49:40.930Z,25.97
2018-12-10T01:00:11.997Z,38.70
2018-12-10T01:05:26.986Z,48.63
2018-12-10T01:10:29.898Z,37.10
2018-12-10T01:15:35.067Z,22.97
2018-12-10T01:20:46.094Z,58.10
2018-12-10T01:26:13.227Z,59.83
2018-12-10T01:31:15.312Z,42.30
2018-12-10T01:36:17.614Z,39.93
2018-12-10T01:41:19.899Z,59.13
2018-12-10T01:46:28.526Z,46.10
2018-12-10T01:56:43.539Z,33.30
2018-12-10T02:02:02.029Z,40.80
2018-12-10T02:07:14.146Z,54.33
2018-12-10T02:17:48.641Z,53.63
2018-12-10T02:28:37.833Z,72.63
2018-12-10T02:33:40.561Z,48.87
2018-12-10T02:38:43.680Z,21.00
2018-12-10T02:44:07.073Z,36.70
2018-12-10T02:49:13.035Z,48.13
2018-12-10T02:54:15.766Z,41.07
2018-12-10T02:59:20.771Z,41.53
2018-12-10T03:04:31.252Z,47.57
2018-12-10T03:09:39.255Z,47.03
2018-12-10T03:14:41.344Z,34.10
2018-12-10T03:19:43.843Z,26.97
2018-12-10T03:24:47.818Z,41.17
2018-12-10T03:29:58.073Z,42.07
2018-12-10T03:35:00.174Z,41.07
2018-12-10T03:40:15.395Z,48.67
2018-12-10T03:45:18.272Z,53.20
2018-12-10T03:50:20.158Z,31.67
2018-12-10T03:55:35.309Z,23.60
2018-12-10T04:00:37.454Z,33.67
2018-12-10T04:05:39.540Z,36.17
2018-12-10T04:10:42.452Z,12.27
2018-12-10T04:21:19.173Z,24.13
2018-12-10T04:26:21.061Z,35.07
2018-12-10T04:31:31.577Z,49.30
2018-12-10T04:36:41.375Z,35.60
2018-12-10T04:41:58.279Z,29.53
2018-12-10T04:47:00.621Z,53.97
2018-12-10T04:52:02.930Z,48.17
2018-12-10T04:57:04.796Z,35.80
2018-12-10T05:02:07.302Z,58.80
2018-12-10T05:07:09.375Z,43.13
2018-12-10T05:12:13.282Z,35.77
2018-12-10T05:17:15.045Z,40.67
2018-12-10T05:22:16.931Z,34.80
2018-12-10T05:27:20.051Z,35.90
2018-12-10T05:32:22.988Z,41.97
2018-12-10T05:37:24.873Z,32.27
2018-12-10T05:42:27.197Z,34.63
2018-12-10T05:47:29.958Z,37.60
2018-12-10T05:52:32.484Z,41.93
2018-12-10T05:57:42.145Z,47.03
2018-12-10T06:02:44.110Z,43.67
2018-12-10T06:07:47.738Z,43.23
2018-12-10T06:12:52.518Z,42.60
2018-12-10T06:17:54.829Z,22.63
2018-12-10T06:22:57.133Z,28.30
2018-12-10T06:28:00.330Z,34.33
2018-12-10T06:33:02.645Z,26.73
2018-12-10T06:38:04.429Z,27.07
2018-12-10T06:43:06.900Z,49.10
2018-12-10T06:48:08.725Z,53.00
2018-12-10T06:53:10.728Z,16.63
2018-12-10T06:58:12.483Z,12.13
2018-12-10T07:03:14.255Z,5.53
2018-12-10T07:08:15.996Z,21.33
2018-12-10T07:13:17.741Z,22.63
2018-12-10T07:18:19.515Z,54.43
2018-12-10T07:23:21.272Z,21.47
2018-12-10T07:28:26.002Z,37.63
2018-12-10T07:33:27.834Z,38.13
2018-12-10T07:38:29.536Z,24.20
2018-12-10T07:43:31.184Z,20.70
2018-12-10T07:48:33.433Z,41.90
2018-12-10T07:53:35.129Z,44.07
2018-12-10T07:58:36.803Z,27.37
2018-12-10T08:03:38.478Z,25.00
2018-12-10T08:08:40.162Z,33.77
2018-12-10T08:13:41.832Z,16.77
2018-12-10T08:18:43.803Z,23.47
2018-12-10T08:23:45.455Z,25.03
2018-12-10T08:28:47.091Z,36.40
2018-12-10T08:33:49.084Z,29.67
2018-12-10T08:38:51.180Z,16.43
2018-12-10T08:43:52.931Z,20.67
2018-12-10T08:48:54.918Z,24.87
2018-12-10T08:53:56.634Z,31.80
2018-12-10T08:59:01.923Z,28.73
2018-12-10T09:04:03.654Z,44.13
2018-12-10T09:09:05.413Z,36.93
2018-12-10T09:14:07.317Z,32.70
2018-12-10T09:19:09.353Z,34.07
2018-12-10T09:24:11.458Z,27.03
2018-12-10T09:29:13.151Z,32.83
2018-12-10T09:34:14.890Z,25.30
2018-12-10T09:39:16.555Z,35.10
2018-12-10T09:44:18.394Z,27.33
2018-12-10T09:49:20.480Z,32.30
2018-12-10T09:54:23.801Z,23.03
2018-12-10T09:59:26.299Z,16.13
2018-12-10T10:04:28.019Z,20.23
2018-12-10T10:09:33.183Z,23.03
2018-12-10T10:14:35.268Z,34.37
2018-12-10T10:19:39.871Z,27.27
2018-12-10T10:24:41.736Z,40.70
2018-12-10T10:29:43.593Z,23.00
2018-12-10T10:34:45.250Z,22.97
2018-12-10T10:39:47.314Z,37.90
2018-12-10T10:44:52.300Z,38.07
2018-12-10T10:49:55.198Z,23.87
2018-12-10T10:54:58.300Z,24.97
2018-12-10T10:59:59.989Z,28.90
2018-12-10T11:05:02.069Z,43.53
2018-12-10T11:10:03.980Z,41.73
2018-12-10T11:15:05.978Z,35.83
2018-12-10T11:20:08.204Z,59.43
2018-12-10T11:25:10.494Z,33.50
2018-12-10T11:30:14.632Z,36.57
2018-12-10T11:35:16.291Z,36.10
2018-12-10T11:40:17.951Z,21.63
2018-12-10T11:45:19.627Z,24.23
2018-12-10T11:50:21.787Z,44.10
2018-12-10T11:55:24.933Z,36.40
2018-12-10T12:00:26.663Z,32.53
2018-12-10T12:05:28.342Z,26.37
2018-12-10T12:10:30.407Z,35.00
2018-12-10T12:15:32.124Z,27.73
2018-12-10T12:20:34.238Z,42.27
2018-12-10T12:25:36.844Z,26.43
2018-12-10T12:30:38.777Z,28.70
2018-12-10T12:35:40.419Z,26.67
2018-12-10T12:40:42.050Z,22.50
2018-12-10T12:45:43.699Z,23.13
2018-12-10T12:50:45.375Z,34.60
2018-12-10T12:55:47.335Z,37.73
2018-12-10T13:00:49.445Z,32.30
2018-12-10T13:05:51.058Z,38.70
2018-12-10T13:10:52.760Z,50.50
2018-12-10T13:15:54.412Z,36.17
2018-12-10T13:20:56.365Z,51.33
2018-12-10T13:25:59.057Z,45.40
2018-12-10T13:31:00.843Z,49.40
2018-12-10T13:36:02.585Z,51.23
2018-12-10T13:41:04.228Z,37.03
2018-12-10T13:46:05.875Z,28.17
2018-12-10T13:51:07.707Z,29.73
2018-12-10T13:56:09.635Z,33.80
2018-12-10T14:01:17.271Z,42.00
2018-12-10T14:06:20.657Z,37.77
2018-12-10T14:11:22.806Z,58.37
2018-12-10T14:16:24.715Z,40.70
2018-12-10T14:21:27.297Z,41.53
2018-12-10T14:26:32.305Z,37.20
2018-12-10T14:31:34.946Z,45.27
2018-12-10T14:36:39.890Z,43.93
2018-12-10T14:41:42.122Z,49.97
2018-12-10T14:46:43.861Z,42.30
2018-12-10T14:51:46.411Z,55.63
2018-12-10T14:56:48.403Z,68.63
2018-12-10T15:01:52.867Z,54.27
2018-12-10T15:06:59.615Z,56.87
2018-12-10T15:12:03.943Z,41.30
2018-12-10T15:17:06.144Z,41.37
2018-12-10T15:22:08.155Z,55.03
2018-12-10T15:27:10.208Z,38.10
2018-12-10T15:32:12.470Z,47.03
2018-12-10T15:37:14.133Z,43.40
2018-12-10T15:42:15.746Z,39.07
2018-12-10T15:47:17.707Z,50.70
2018-12-10T15:52:19.418Z,38.50
2018-12-10T15:57:21.169Z,58.53
2018-12-10T16:02:25.163Z,39.50
2018-12-10T16:07:28.138Z,45.50
2018-12-10T16:12:32.021Z,39.20
2018-12-10T16:17:34.283Z,37.97
2018-12-10T16:22:35.949Z,33.90
2018-12-10T16:27:37.839Z,31.80
2018-12-10T16:32:39.473Z,54.43
2018-12-10T16:37:41.462Z,42.93
2018-12-10T16:42:43.100Z,38.00
2018-12-10T16:47:45.622Z,39.37
2018-12-10T16:52:47.262Z,56.53
2018-12-10T16:57:48.987Z,71.00
2018-12-10T17:02:50.622Z,77.57
2018-12-10T17:07:52.573Z,64.37
2018-12-10T17:12:54.216Z,80.97
2018-12-10T17:17:56.023Z,67.57
2018-12-10T17:22:57.799Z,59.20
2018-12-10T17:27:59.443Z,54.13
2018-12-10T17:33:01.096Z,47.20
2018-12-10T17:38:03.330Z,61.63
2018-12-10T17:43:11.335Z,47.40
2018-12-10T17:48:20.077Z,36.43
2018-12-10T17:53:22.057Z,41.83
2018-12-10T17:58:23.770Z,36.03
2018-12-10T18:03:25.419Z,32.63
2018-12-10T18:08:27.387Z,60.70
2018-12-10T18:13:29.443Z,55.50
2018-12-10T18:18:31.072Z,36.23
2018-12-10T18:23:34.295Z,46.73
2018-12-10T18:28:38.228Z,45.17
2018-12-10T18:33:40.590Z,43.80
2018-12-10T18:38:42.365Z,47.27
2018-12-10T18:43:44.443Z,50.73
2018-12-10T18:48:46.468Z,53.57
2018-12-10T18:53:49.053Z,60.37
2018-12-10T18:58:51.103Z,53.77
2018-12-10T19:03:53.021Z,43.50
2018-12-10T19:08:58.448Z,57.57
2018-12-10T19:14:00.467Z,61.23
2018-12-10T19:19:03.516Z,68.03
2018-12-10T19:24:05.337Z,50.43
2018-12-10T19:29:06.980Z,62.80
2018-12-10T19:34:08.902Z,46.67
2018-12-10T19:39:10.557Z,58.20
2018-12-10T19:44:12.514Z,45.27
2018-12-10T19:49:16.243Z,54.07
2018-12-10T19:54:18.119Z,56.00
2018-12-10T19:59:20.609Z,60.93
2018-12-10T20:04:24.311Z,64.87
2018-12-10T20:09:43.128Z,62.17
2018-12-10T20:14:45.061Z,40.33
2018-12-10T20:19:47.221Z,60.77
2018-12-10T20:24:51.715Z,75.53
2018-12-10T20:29:53.646Z,89.07
2018-12-10T20:34:55.634Z,61.87
2018-12-10T20:39:57.358Z,62.03
2018-12-10T20:44:58.988Z,59.57
2018-12-10T20:50:01.860Z,74.43
2018-12-10T20:55:04.130Z,69.10
2018-12-10T21:00:08.788Z,64.80
2018-12-10T21:05:10.445Z,66.03
2018-12-10T21:10:12.696Z,73.17
2018-12-10T21:15:18.147Z,84.83
2018-12-10T21:20:20.545Z,69.47
2018-12-10T21:25:22.196Z,49.43
2018-12-10T21:30:23.916Z,65.77
2018-12-10T21:35:25.807Z,64.50
2018-12-10T21:40:27.708Z,58.03
2018-12-10T21:45:29.695Z,47.75
2018-12-10T21:55:56.896Z,58.40
2018-12-10T22:00:58.771Z,71.23
2018-12-10T22:06:00.872Z,59.17
2018-12-10T22:11:03.568Z,69.93
2018-12-10T22:16:05.853Z,66.97
2018-12-10T22:21:07.550Z,46.60
2018-12-10T22:26:09.228Z,46.13
2018-12-10T22:31:14.800Z,56.07
2018-12-10T22:36:16.469Z,63.60
2018-12-10T22:41:19.423Z,67.47
2018-12-10T22:46:28.638Z,69.93
2018-12-10T22:51:30.513Z,67.33
2018-12-10T22:56:32.811Z,78.33
2018-12-10T23:01:34.891Z,61.67
2018-12-10T23:06:36.547Z,58.50
2018-12-10T23:11:48.470Z,55.30
2018-12-10T23:16:55.271Z,51.87
2018-12-10T23:22:05.122Z,55.10
2018-12-10T23:27:09.083Z,74.23
2018-12-10T23:32:11.967Z,44.90
2018-12-10T23:37:21.176Z,61.30
2018-12-10T23:42:23.812Z,47.13
2018-12-10T23:52:43.891Z,57.60
2018-12-10T23:57:47.915Z,68.37
